TimePST,TemperatureF,Dew PointF,Humidity,Sea Level PressureIn,VisibilityMPH,Wind Direction,Wind SpeedMPH,Gust SpeedMPH,PrecipitationIn,Events,Conditions,WindDirDegrees,DateUTC
12:55 AM,44.1,27.0,51,30.09,10.0,Calm,Calm,-,N/A,,Clear,0,2012-12-19 08:55:00
1:55 AM,39.9,28.9,65,30.11,10.0,East,5.8,-,N/A,,Clear,80,2012-12-19 09:55:00
2:55 AM,41.0,28.0,60,30.13,10.0,ENE,8.1,-,N/A,,Clear,70,2012-12-19 10:55:00
3:55 AM,42.1,27.0,55,30.15,10.0,ENE,9.2,-,N/A,,Clear,60,2012-12-19 11:55:00
4:55 AM,42.1,27.0,55,30.16,10.0,ENE,8.1,-,N/A,,Clear,70,2012-12-19 12:55:00
5:55 AM,41.0,27.0,57,30.19,10.0,ENE,8.1,-,N/A,,Clear,60,2012-12-19 13:55:00
6:55 AM,37.0,28.0,70,30.22,10.0,Calm,Calm,-,N/A,,Clear,0,2012-12-19 14:55:00
7:55 AM,45.0,28.0,52,30.23,10.0,NE,6.9,-,N/A,,Clear,40,2012-12-19 15:55:00
8:55 AM,52.0,24.1,34,30.26,10.0,NE,9.2,-,N/A,,Clear,50,2012-12-19 16:55:00
9:55 AM,57.0,19.9,24,30.26,10.0,ENE,15.0,26.5,N/A,,Clear,60,2012-12-19 17:55:00
10:55 AM,57.9,19.0,22,30.26,10.0,ENE,19.6,24.2,N/A,,Clear,70,2012-12-19 18:55:00
11:55 AM,59.0,15.1,18,30.25,10.0,ENE,13.8,24.2,N/A,,Clear,60,2012-12-19 19:55:00
12:55 PM,62.1,10.0,13,30.23,10.0,ENE,19.6,28.8,N/A,,Clear,70,2012-12-19 20:55:00
1:55 PM,61.0,8.1,12,30.22,10.0,ENE,20.7,29.9,N/A,,Clear,70,2012-12-19 21:55:00
2:55 PM,61.0,10.0,13,30.22,10.0,ENE,18.4,27.6,N/A,,Clear,70,2012-12-19 22:55:00
3:55 PM,60.1,10.0,14,30.23,10.0,ENE,21.9,26.5,N/A,,Clear,70,2012-12-19 23:55:00
4:55 PM,57.0,10.9,16,30.24,10.0,ENE,10.4,-,N/A,,Clear,70,2012-12-20 00:55:00
5:55 PM,54.0,12.0,19,30.26,10.0,ENE,12.7,-,N/A,,Clear,70,2012-12-20 01:55:00
6:55 PM,54.0,10.9,18,30.26,10.0,East,13.8,-,N/A,,Clear,80,2012-12-20 02:55:00
7:55 PM,52.0,10.9,19,30.28,10.0,ENE,11.5,-,N/A,,Clear,60,2012-12-20 03:55:00
8:55 PM,53.1,8.1,16,30.29,10.0,ENE,17.3,-,N/A,,Clear,70,2012-12-20 04:55:00
9:55 PM,53.1,7.0,16,30.30,10.0,East,13.8,-,N/A,,Clear,80,2012-12-20 05:55:00
10:55 PM,52.0,9.0,18,30.30,10.0,East,15.0,-,N/A,,Clear,80,2012-12-20 06:55:00
11:55 PM,51.1,10.0,19,30.29,10.0,East,13.8,-,N/A,,Clear,80,2012-12-20 07:55:00